sensor_id;sensor_type;location;lat;lon;timestamp;pressure;altitude;pressure_sealevel;temperature;humidity
63970;BME280;50156;37.772;-122.432;2022-09-09T00:02:26;100021.46;;;25.32;100.00
63970;BME280;50156;37.772;-122.432;2022-09-09T00:05:00;100024.39;;;25.33;100.00
63970;BME280;50156;37.772;-122.432;2022-09-09T00:07:40;100016.98;;;25.40;100.00
63970;BME280;50156;37.772;-122.432;2022-09-09T00:10:20;100013.53;;;24.88;100.00
63970;BME280;50156;37.772;-122.432;2022-09-09T00:13:02;100012.66;;;24.92;100.00
63970;BME280;50156;37.772;-122.432;2022-09-09T00:15:38;100009.11;;;25.19;100.00
63970;BME280;50156;37.772;-122.432;2022-09-09T00:18:17;100005.93;;;25.07;100.00
63970;BME280;50156;37.772;-122.432;2022-09-09T00:20:56;100004.95;;;24.83;100.00
63970;BME280;50156;37.772;-122.432;2022-09-09T00:23:28;99999.69;;;24.41;100.00
63970;BME280;50156;37.772;-122.432;2022-09-09T00:26:04;99997.91;;;24.18;100.00
63970;BME280;50156;37.772;-122.432;2022-09-09T00:28:55;99994.62;;;24.02;100.00
63970;BME280;50156;37.772;-122.432;2022-09-09T00:31:30;99993.64;;;23.84;100.00
63970;BME280;50156;37.772;-122.432;2022-09-09T00:34:05;99990.02;;;23.62;100.00
63970;BME280;50156;37.772;-122.432;2022-09-09T00:36:37;99987.32;;;23.43;100.00
63970;BME280;50156;37.772;-122.432;2022-09-09T00:39:12;99985.71;;;23.31;100.00
63970;BME280;50156;37.772;-122.432;2022-09-09T00:41:56;99984.02;;;23.03;100.00
63970;BME280;50156;37.772;-122.432;2022-09-09T00:44:33;99990.58;;;22.86;100.00
63970;BME280;50156;37.772;-122.432;2022-09-09T00:47:15;99980.38;;;22.80;100.00
63970;BME280;50156;37.772;-122.432;2022-09-09T00:49:56;99989.10;;;22.90;100.00
63970;BME280;50156;37.772;-122.432;2022-09-09T00:52:34;99985.12;;;22.73;100.00
63970;BME280;50156;37.772;-122.432;2022-09-09T00:55:12;99984.24;;;22.46;100.00
63970;BME280;50156;37.772;-122.432;2022-09-09T00:57:43;99983.59;;;22.50;100.00
63970;BME280;50156;37.772;-122.432;2022-09-09T01:00:23;99983.72;;;22.30;100.00
63970;BME280;50156;37.772;-122.432;2022-09-09T01:03:05;99982.99;;;22.35;100.00
63970;BME280;50156;37.772;-122.432;2022-09-09T01:05:43;99979.50;;;22.50;100.00
63970;BME280;50156;37.772;-122.432;2022-09-09T01:08:28;99980.57;;;22.33;100.00
63970;BME280;50156;37.772;-122.432;2022-09-09T01:11:00;99982.37;;;22.37;100.00
63970;BME280;50156;37.772;-122.432;2022-09-09T01:13:30;99980.83;;;22.16;100.00
63970;BME280;50156;37.772;-122.432;2022-09-09T01:16:00;99978.59;;;21.87;100.00
63970;BME280;50156;37.772;-122.432;2022-09-09T01:18:33;99978.36;;;21.81;100.00
63970;BME280;50156;37.772;-122.432;2022-09-09T01:21:15;99975.59;;;21.73;100.00
63970;BME280;50156;37.772;-122.432;2022-09-09T01:24:01;99975.95;;;21.57;100.00
63970;BME280;50156;37.772;-122.432;2022-09-09T01:26:35;99977.17;;;21.53;100.00
63970;BME280;50156;37.772;-122.432;2022-09-09T01:29:08;99977.52;;;21.37;100.00
63970;BME280;50156;37.772;-122.432;2022-09-09T01:31:39;99977.67;;;21.04;100.00
63970;BME280;50156;37.772;-122.432;2022-09-09T01:34:11;99983.39;;;20.58;100.00
63970;BME280;50156;37.772;-122.432;2022-09-09T01:36:44;99979.09;;;20.57;100.00
63970;BME280;50156;37.772;-122.432;2022-09-09T01:39:15;99975.90;;;20.45;100.00
63970;BME280;50156;37.772;-122.432;2022-09-09T01:41:43;99975.64;;;20.23;100.00
63970;BME280;50156;37.772;-122.432;2022-09-09T01:44:13;99973.94;;;19.95;100.00
63970;BME280;50156;37.772;-122.432;2022-09-09T01:46:41;99971.88;;;19.78;100.00
63970;BME280;50156;37.772;-122.432;2022-09-09T01:49:10;99968.95;;;19.71;100.00
63970;BME280;50156;37.772;-122.432;2022-09-09T01:51:40;99972.69;;;19.63;100.00
63970;BME280;50156;37.772;-122.432;2022-09-09T01:54:11;99974.81;;;19.59;100.00
63970;BME280;50156;37.772;-122.432;2022-09-09T01:56:47;99973.41;;;19.58;100.00
63970;BME280;50156;37.772;-122.432;2022-09-09T01:59:29;99967.83;;;19.22;100.00
63970;BME280;50156;37.772;-122.432;2022-09-09T02:02:11;99967.10;;;19.21;100.00
63970;BME280;50156;37.772;-122.432;2022-09-09T02:04:42;99967.05;;;18.97;100.00
63970;BME280;50156;37.772;-122.432;2022-09-09T02:07:30;99962.60;;;18.85;100.00
63970;BME280;50156;37.772;-122.432;2022-09-09T02:10:10;99962.79;;;18.76;100.00
63970;BME280;50156;37.772;-122.432;2022-09-09T02:12:41;99961.10;;;18.60;100.00
63970;BME280;50156;37.772;-122.432;2022-09-09T02:15:19;99963.96;;;18.37;100.00
63970;BME280;50156;37.772;-122.432;2022-09-09T02:17:51;99962.20;;;18.40;100.00
63970;BME280;50156;37.772;-122.432;2022-09-09T02:20:21;99959.12;;;18.18;100.00
63970;BME280;50156;37.772;-122.432;2022-09-09T02:22:51;99957.56;;;18.26;100.00
63970;BME280;50156;37.772;-122.432;2022-09-09T02:25:23;99955.08;;;18.20;100.00
63970;BME280;50156;37.772;-122.432;2022-09-09T02:27:53;99954.13;;;18.16;100.00
63970;BME280;50156;37.772;-122.432;2022-09-09T02:30:23;99944.08;;;18.16;100.00
63970;BME280;50156;37.772;-122.432;2022-09-09T02:32:54;99944.71;;;17.99;100.00
63970;BME280;50156;37.772;-122.432;2022-09-09T02:35:25;99942.36;;;17.84;100.00
63970;BME280;50156;37.772;-122.432;2022-09-09T02:37:58;99944.67;;;17.98;100.00
63970;BME280;50156;37.772;-122.432;2022-09-09T02:40:28;99948.03;;;17.69;100.00
63970;BME280;50156;37.772;-122.432;2022-09-09T02:42:56;99951.01;;;17.80;100.00
63970;BME280;50156;37.772;-122.432;2022-09-09T02:45:27;99953.00;;;17.67;100.00
63970;BME280;50156;37.772;-122.432;2022-09-09T02:48:02;99953.64;;;17.66;100.00
63970;BME280;50156;37.772;-122.432;2022-09-09T02:50:37;99960.35;;;17.67;100.00
63970;BME280;50156;37.772;-122.432;2022-09-09T02:53:11;99951.10;;;17.59;100.00
63970;BME280;50156;37.772;-122.432;2022-09-09T02:55:48;99952.71;;;17.58;100.00
63970;BME280;50156;37.772;-122.432;2022-09-09T02:58:20;99954.20;;;17.61;100.00
63970;BME280;50156;37.772;-122.432;2022-09-09T03:00:50;99957.28;;;17.60;100.00
63970;BME280;50156;37.772;-122.432;2022-09-09T03:03:20;99963.33;;;17.50;100.00
63970;BME280;50156;37.772;-122.432;2022-09-09T03:05:49;99968.62;;;17.47;100.00
63970;BME280;50156;37.772;-122.432;2022-09-09T03:08:18;99970.13;;;17.42;100.00
63970;BME280;50156;37.772;-122.432;2022-09-09T03:10:47;99975.03;;;17.50;100.00
63970;BME280;50156;37.772;-122.432;2022-09-09T03:13:16;99971.94;;;17.51;100.00
63970;BME280;50156;37.772;-122.432;2022-09-09T03:15:45;99977.75;;;17.47;100.00
63970;BME280;50156;37.772;-122.432;2022-09-09T03:18:14;99977.81;;;17.68;100.00
63970;BME280;50156;37.772;-122.432;2022-09-09T03:20:42;99985.57;;;17.44;100.00
63970;BME280;50156;37.772;-122.432;2022-09-09T03:23:11;99985.19;;;17.64;100.00
63970;BME280;50156;37.772;-122.432;2022-09-09T03:25:46;99990.00;;;17.70;100.00
63970;BME280;50156;37.772;-122.432;2022-09-09T03:28:15;99986.49;;;17.73;100.00
63970;BME280;50156;37.772;-122.432;2022-09-09T03:30:43;99992.88;;;17.82;100.00
63970;BME280;50156;37.772;-122.432;2022-09-09T03:33:12;99994.15;;;17.86;100.00
63970;BME280;50156;37.772;-122.432;2022-09-09T03:35:45;99998.78;;;17.85;100.00
63970;BME280;50156;37.772;-122.432;2022-09-09T03:38:14;100004.98;;;17.89;100.00
63970;BME280;50156;37.772;-122.432;2022-09-09T03:40:50;100010.29;;;17.89;100.00
63970;BME280;50156;37.772;-122.432;2022-09-09T03:43:19;100013.76;;;17.95;100.00
63970;BME280;50156;37.772;-122.432;2022-09-09T03:45:48;100011.37;;;17.87;100.00
63970;BME280;50156;37.772;-122.432;2022-09-09T03:48:18;100008.81;;;17.94;100.00
63970;BME280;50156;37.772;-122.432;2022-09-09T03:50:48;100010.79;;;17.83;100.00
63970;BME280;50156;37.772;-122.432;2022-09-09T03:53:19;100012.57;;;17.88;100.00
63970;BME280;50156;37.772;-122.432;2022-09-09T03:55:51;100014.05;;;17.69;100.00
63970;BME280;50156;37.772;-122.432;2022-09-09T03:58:21;100021.56;;;17.63;100.00
63970;BME280;50156;37.772;-122.432;2022-09-09T04:00:55;100021.03;;;17.48;100.00
63970;BME280;50156;37.772;-122.432;2022-09-09T04:03:24;100029.32;;;17.48;100.00
63970;BME280;50156;37.772;-122.432;2022-09-09T04:05:53;100029.87;;;17.31;100.00
63970;BME280;50156;37.772;-122.432;2022-09-09T04:08:23;100031.31;;;17.24;100.00
63970;BME280;50156;37.772;-122.432;2022-09-09T04:10:53;100027.82;;;17.22;100.00
63970;BME280;50156;37.772;-122.432;2022-09-09T04:13:23;100035.74;;;17.13;100.00
63970;BME280;50156;37.772;-122.432;2022-09-09T04:15:53;100040.64;;;17.09;100.00
63970;BME280;50156;37.772;-122.432;2022-09-09T04:18:24;100038.95;;;17.04;100.00
63970;BME280;50156;37.772;-122.432;2022-09-09T04:20:53;100041.07;;;17.03;100.00
63970;BME280;50156;37.772;-122.432;2022-09-09T04:23:23;100051.46;;;17.00;100.00
63970;BME280;50156;37.772;-122.432;2022-09-09T04:25:53;100052.48;;;17.06;100.00
63970;BME280;50156;37.772;-122.432;2022-09-09T04:28:25;100049.07;;;17.20;100.00
63970;BME280;50156;37.772;-122.432;2022-09-09T04:30:53;100049.72;;;17.37;100.00
63970;BME280;50156;37.772;-122.432;2022-09-09T04:33:23;100046.70;;;17.50;100.00
63970;BME280;50156;37.772;-122.432;2022-09-09T04:35:51;100043.60;;;17.56;100.00
63970;BME280;50156;37.772;-122.432;2022-09-09T04:38:21;100043.86;;;17.57;100.00
63970;BME280;50156;37.772;-122.432;2022-09-09T04:40:51;100047.27;;;17.50;100.00
63970;BME280;50156;37.772;-122.432;2022-09-09T04:43:21;100046.82;;;17.34;100.00
63970;BME280;50156;37.772;-122.432;2022-09-09T04:45:52;100049.60;;;17.34;100.00
63970;BME280;50156;37.772;-122.432;2022-09-09T04:48:21;100045.82;;;17.27;100.00
63970;BME280;50156;37.772;-122.432;2022-09-09T04:50:59;100045.48;;;17.24;100.00
63970;BME280;50156;37.772;-122.432;2022-09-09T04:53:28;100040.63;;;17.15;100.00
63970;BME280;50156;37.772;-122.432;2022-09-09T04:56:02;100045.18;;;17.00;100.00
63970;BME280;50156;37.772;-122.432;2022-09-09T04:58:32;100050.24;;;17.04;100.00
63970;BME280;50156;37.772;-122.432;2022-09-09T05:01:08;100055.40;;;16.88;100.00
63970;BME280;50156;37.772;-122.432;2022-09-09T05:03:38;100058.12;;;16.87;100.00
63970;BME280;50156;37.772;-122.432;2022-09-09T05:06:09;100056.88;;;16.95;100.00
63970;BME280;50156;37.772;-122.432;2022-09-09T05:08:38;100055.68;;;16.81;100.00
63970;BME280;50156;37.772;-122.432;2022-09-09T05:11:15;100049.47;;;16.84;100.00
63970;BME280;50156;37.772;-122.432;2022-09-09T05:13:43;100043.40;;;16.78;100.00
63970;BME280;50156;37.772;-122.432;2022-09-09T05:16:13;100041.91;;;16.85;100.00
63970;BME280;50156;37.772;-122.432;2022-09-09T05:18:42;100042.80;;;16.80;100.00
63970;BME280;50156;37.772;-122.432;2022-09-09T05:21:11;100043.63;;;16.81;100.00
63970;BME280;50156;37.772;-122.432;2022-09-09T05:23:40;100046.25;;;16.83;100.00
63970;BME280;50156;37.772;-122.432;2022-09-09T05:26:13;100045.37;;;16.83;100.00
63970;BME280;50156;37.772;-122.432;2022-09-09T05:28:41;100043.44;;;16.81;100.00
63970;BME280;50156;37.772;-122.432;2022-09-09T05:31:11;100042.24;;;16.78;100.00
63970;BME280;50156;37.772;-122.432;2022-09-09T05:33:42;100042.05;;;16.79;100.00
63970;BME280;50156;37.772;-122.432;2022-09-09T05:36:14;100043.97;;;16.75;100.00
63970;BME280;50156;37.772;-122.432;2022-09-09T05:38:42;100046.55;;;16.75;100.00
63970;BME280;50156;37.772;-122.432;2022-09-09T05:41:12;100049.98;;;16.75;100.00
63970;BME280;50156;37.772;-122.432;2022-09-09T05:43:41;100045.64;;;16.74;100.00
63970;BME280;50156;37.772;-122.432;2022-09-09T05:46:12;100045.91;;;16.76;100.00
63970;BME280;50156;37.772;-122.432;2022-09-09T05:48:42;100044.43;;;16.77;100.00
63970;BME280;50156;37.772;-122.432;2022-09-09T05:51:13;100046.74;;;16.76;100.00
63970;BME280;50156;37.772;-122.432;2022-09-09T05:53:42;100045.98;;;16.70;100.00
63970;BME280;50156;37.772;-122.432;2022-09-09T05:56:13;100047.30;;;16.72;100.00
63970;BME280;50156;37.772;-122.432;2022-09-09T05:58:42;100045.09;;;16.74;100.00
63970;BME280;50156;37.772;-122.432;2022-09-09T06:01:13;100041.95;;;16.65;100.00
63970;BME280;50156;37.772;-122.432;2022-09-09T06:03:43;100051.42;;;16.65;100.00
63970;BME280;50156;37.772;-122.432;2022-09-09T06:06:15;100051.57;;;16.61;100.00
63970;BME280;50156;37.772;-122.432;2022-09-09T06:08:44;100058.17;;;16.58;100.00
63970;BME280;50156;37.772;-122.432;2022-09-09T06:11:16;100059.38;;;16.59;100.00
63970;BME280;50156;37.772;-122.432;2022-09-09T06:13:45;100061.81;;;16.56;100.00
63970;BME280;50156;37.772;-122.432;2022-09-09T06:16:15;100060.95;;;16.60;100.00
63970;BME280;50156;37.772;-122.432;2022-09-09T06:18:45;100058.07;;;16.59;100.00
63970;BME280;50156;37.772;-122.432;2022-09-09T06:21:16;100058.58;;;16.56;100.00
63970;BME280;50156;37.772;-122.432;2022-09-09T06:23:46;100059.76;;;16.52;100.00
63970;BME280;50156;37.772;-122.432;2022-09-09T06:26:17;100059.15;;;16.50;100.00
63970;BME280;50156;37.772;-122.432;2022-09-09T06:28:47;100055.33;;;16.49;100.00
63970;BME280;50156;37.772;-122.432;2022-09-09T06:31:17;100059.32;;;16.47;100.00
63970;BME280;50156;37.772;-122.432;2022-09-09T06:33:46;100054.99;;;16.39;100.00
63970;BME280;50156;37.772;-122.432;2022-09-09T06:36:17;100048.60;;;16.37;100.00
63970;BME280;50156;37.772;-122.432;2022-09-09T06:38:47;100053.13;;;16.36;100.00
63970;BME280;50156;37.772;-122.432;2022-09-09T06:41:21;100055.77;;;16.36;100.00
63970;BME280;50156;37.772;-122.432;2022-09-09T06:43:50;100061.16;;;16.41;100.00
63970;BME280;50156;37.772;-122.432;2022-09-09T06:46:22;100069.07;;;16.32;100.00
63970;BME280;50156;37.772;-122.432;2022-09-09T06:48:51;100067.89;;;16.31;100.00
63970;BME280;50156;37.772;-122.432;2022-09-09T06:51:21;100069.07;;;16.28;100.00
63970;BME280;50156;37.772;-122.432;2022-09-09T06:53:52;100069.00;;;16.34;100.00
63970;BME280;50156;37.772;-122.432;2022-09-09T06:56:23;100061.31;;;16.29;100.00
63970;BME280;50156;37.772;-122.432;2022-09-09T06:58:53;100058.98;;;16.36;100.00
63970;BME280;50156;37.772;-122.432;2022-09-09T07:01:23;100046.42;;;16.38;100.00
63970;BME280;50156;37.772;-122.432;2022-09-09T07:03:55;100047.63;;;16.40;100.00
63970;BME280;50156;37.772;-122.432;2022-09-09T07:06:25;100041.09;;;16.46;100.00
63970;BME280;50156;37.772;-122.432;2022-09-09T07:08:55;100024.60;;;16.47;100.00
63970;BME280;50156;37.772;-122.432;2022-09-09T07:11:26;100019.15;;;16.46;100.00
63970;BME280;50156;37.772;-122.432;2022-09-09T07:13:56;100015.64;;;16.33;100.00
63970;BME280;50156;37.772;-122.432;2022-09-09T07:16:26;100012.18;;;16.33;100.00
63970;BME280;50156;37.772;-122.432;2022-09-09T07:18:55;100003.63;;;16.32;100.00
63970;BME280;50156;37.772;-122.432;2022-09-09T07:21:25;100000.34;;;16.28;100.00
63970;BME280;50156;37.772;-122.432;2022-09-09T07:23:54;99992.04;;;16.21;100.00
63970;BME280;50156;37.772;-122.432;2022-09-09T07:26:24;99995.06;;;16.21;100.00
63970;BME280;50156;37.772;-122.432;2022-09-09T07:28:54;99983.45;;;16.18;100.00
63970;BME280;50156;37.772;-122.432;2022-09-09T07:31:24;99987.51;;;16.16;100.00
63970;BME280;50156;37.772;-122.432;2022-09-09T07:33:53;99986.80;;;16.11;100.00
63970;BME280;50156;37.772;-122.432;2022-09-09T07:36:24;99979.35;;;16.10;100.00
63970;BME280;50156;37.772;-122.432;2022-09-09T07:38:55;99974.29;;;16.09;100.00
63970;BME280;50156;37.772;-122.432;2022-09-09T07:41:26;99964.05;;;16.09;100.00
63970;BME280;50156;37.772;-122.432;2022-09-09T07:43:55;99959.02;;;16.00;100.00
63970;BME280;50156;37.772;-122.432;2022-09-09T07:46:25;99955.15;;;15.99;100.00
63970;BME280;50156;37.772;-122.432;2022-09-09T07:48:55;99947.35;;;15.97;100.00
63970;BME280;50156;37.772;-122.432;2022-09-09T07:51:26;99947.69;;;15.93;100.00
63970;BME280;50156;37.772;-122.432;2022-09-09T07:53:57;99945.05;;;15.94;100.00
63970;BME280;50156;37.772;-122.432;2022-09-09T07:56:27;99946.68;;;15.88;100.00
63970;BME280;50156;37.772;-122.432;2022-09-09T07:58:57;99947.26;;;15.84;100.00
63970;BME280;50156;37.772;-122.432;2022-09-09T08:01:28;99951.89;;;15.85;100.00
63970;BME280;50156;37.772;-122.432;2022-09-09T08:03:58;99958.66;;;15.88;100.00
63970;BME280;50156;37.772;-122.432;2022-09-09T08:06:29;99969.86;;;15.93;100.00
63970;BME280;50156;37.772;-122.432;2022-09-09T08:08:58;99973.92;;;15.89;100.00
63970;BME280;50156;37.772;-122.432;2022-09-09T08:11:28;99978.47;;;15.96;100.00
63970;BME280;50156;37.772;-122.432;2022-09-09T08:13:57;99972.75;;;16.08;100.00
63970;BME280;50156;37.772;-122.432;2022-09-09T08:16:27;99960.68;;;16.19;100.00
63970;BME280;50156;37.772;-122.432;2022-09-09T08:18:56;99962.71;;;16.19;100.00
63970;BME280;50156;37.772;-122.432;2022-09-09T08:21:27;99953.97;;;16.18;100.00
63970;BME280;50156;37.772;-122.432;2022-09-09T08:23:58;99959.54;;;16.03;100.00
63970;BME280;50156;37.772;-122.432;2022-09-09T08:26:28;99958.21;;;15.99;100.00
63970;BME280;50156;37.772;-122.432;2022-09-09T08:28:58;99960.74;;;15.94;100.00
63970;BME280;50156;37.772;-122.432;2022-09-09T08:31:30;99962.55;;;15.85;100.00
63970;BME280;50156;37.772;-122.432;2022-09-09T08:34:00;99963.16;;;15.83;100.00
63970;BME280;50156;37.772;-122.432;2022-09-09T08:36:30;99967.16;;;15.79;100.00
63970;BME280;50156;37.772;-122.432;2022-09-09T08:38:58;99957.03;;;15.83;100.00
63970;BME280;50156;37.772;-122.432;2022-09-09T08:42:38;99949.40;;;15.84;100.00
63970;BME280;50156;37.772;-122.432;2022-09-09T08:45:24;99935.60;;;15.73;100.00
63970;BME280;50156;37.772;-122.432;2022-09-09T08:48:03;99935.42;;;15.67;100.00
63970;BME280;50156;37.772;-122.432;2022-09-09T08:50:36;99939.04;;;15.69;100.00
63970;BME280;50156;37.772;-122.432;2022-09-09T08:53:10;99936.48;;;15.74;100.00
63970;BME280;50156;37.772;-122.432;2022-09-09T08:55:45;99936.95;;;15.76;100.00
63970;BME280;50156;37.772;-122.432;2022-09-09T08:58:17;99935.79;;;15.78;100.00
63970;BME280;50156;37.772;-122.432;2022-09-09T09:00:59;99926.58;;;15.75;100.00
63970;BME280;50156;37.772;-122.432;2022-09-09T09:03:38;99928.46;;;15.82;100.00
63970;BME280;50156;37.772;-122.432;2022-09-09T09:06:22;99925.04;;;15.87;100.00
63970;BME280;50156;37.772;-122.432;2022-09-09T09:08:59;99924.19;;;15.77;100.00
63970;BME280;50156;37.772;-122.432;2022-09-09T09:11:35;99920.59;;;15.74;100.00
63970;BME280;50156;37.772;-122.432;2022-09-09T09:14:10;99921.50;;;15.76;100.00
63970;BME280;50156;37.772;-122.432;2022-09-09T09:16:48;99919.97;;;15.69;100.00
63970;BME280;50156;37.772;-122.432;2022-09-09T09:19:19;99919.74;;;15.82;100.00
63970;BME280;50156;37.772;-122.432;2022-09-09T09:21:53;99918.09;;;15.75;100.00
63970;BME280;50156;37.772;-122.432;2022-09-09T09:24:25;99919.49;;;15.65;100.00
63970;BME280;50156;37.772;-122.432;2022-09-09T09:26:55;99925.20;;;15.68;100.00
63970;BME280;50156;37.772;-122.432;2022-09-09T09:29:25;99920.54;;;15.62;100.00
63970;BME280;50156;37.772;-122.432;2022-09-09T09:31:56;99922.74;;;15.59;100.00
63970;BME280;50156;37.772;-122.432;2022-09-09T09:34:26;99927.47;;;15.53;100.00
63970;BME280;50156;37.772;-122.432;2022-09-09T09:36:56;99919.09;;;15.44;100.00
63970;BME280;50156;37.772;-122.432;2022-09-09T09:39:27;99916.15;;;15.36;100.00
63970;BME280;50156;37.772;-122.432;2022-09-09T09:41:56;99918.64;;;15.36;100.00
63970;BME280;50156;37.772;-122.432;2022-09-09T09:44:27;99920.73;;;15.41;100.00
63970;BME280;50156;37.772;-122.432;2022-09-09T09:47:08;99914.62;;;15.40;100.00
63970;BME280;50156;37.772;-122.432;2022-09-09T09:49:37;99905.52;;;15.38;100.00
63970;BME280;50156;37.772;-122.432;2022-09-09T09:52:06;99902.41;;;15.31;100.00
63970;BME280;50156;37.772;-122.432;2022-09-09T09:54:38;99903.99;;;15.27;100.00
63970;BME280;50156;37.772;-122.432;2022-09-09T09:57:10;99908.75;;;15.33;100.00
63970;BME280;50156;37.772;-122.432;2022-09-09T09:59:39;99911.61;;;15.28;100.00
63970;BME280;50156;37.772;-122.432;2022-09-09T10:02:18;99911.48;;;15.25;100.00
63970;BME280;50156;37.772;-122.432;2022-09-09T10:04:48;99913.21;;;15.17;100.00
63970;BME280;50156;37.772;-122.432;2022-09-09T10:07:20;99914.50;;;15.17;100.00
63970;BME280;50156;37.772;-122.432;2022-09-09T10:09:53;99915.71;;;15.15;100.00
63970;BME280;50156;37.772;-122.432;2022-09-09T10:12:33;99917.29;;;15.17;100.00
63970;BME280;50156;37.772;-122.432;2022-09-09T10:15:26;99910.12;;;15.17;100.00
63970;BME280;50156;37.772;-122.432;2022-09-09T10:18:06;99910.74;;;15.13;100.00
63970;BME280;50156;37.772;-122.432;2022-09-09T10:20:42;99912.26;;;15.11;100.00
63970;BME280;50156;37.772;-122.432;2022-09-09T10:23:25;99915.91;;;15.12;100.00
63970;BME280;50156;37.772;-122.432;2022-09-09T10:26:04;99913.15;;;15.05;100.00
63970;BME280;50156;37.772;-122.432;2022-09-09T10:29:03;99910.58;;;14.94;100.00
63970;BME280;50156;37.772;-122.432;2022-09-09T10:31:39;99908.65;;;14.90;100.00
63970;BME280;50156;37.772;-122.432;2022-09-09T10:34:21;99911.34;;;14.90;100.00
63970;BME280;50156;37.772;-122.432;2022-09-09T10:36:53;99906.98;;;14.83;100.00
63970;BME280;50156;37.772;-122.432;2022-09-09T10:39:33;99901.35;;;14.77;100.00
63970;BME280;50156;37.772;-122.432;2022-09-09T10:42:06;99901.36;;;14.71;100.00
63970;BME280;50156;37.772;-122.432;2022-09-09T10:44:51;99897.18;;;14.68;100.00
63970;BME280;50156;37.772;-122.432;2022-09-09T10:47:35;99889.77;;;14.57;100.00
63970;BME280;50156;37.772;-122.432;2022-09-09T10:50:20;99886.55;;;14.59;100.00
63970;BME280;50156;37.772;-122.432;2022-09-09T10:53:00;99886.68;;;14.54;100.00
63970;BME280;50156;37.772;-122.432;2022-09-09T10:55:38;99891.18;;;14.52;100.00
63970;BME280;50156;37.772;-122.432;2022-09-09T10:58:12;99895.26;;;14.56;100.00
63970;BME280;50156;37.772;-122.432;2022-09-09T11:00:45;99895.93;;;14.58;100.00
63970;BME280;50156;37.772;-122.432;2022-09-09T11:03:19;99896.42;;;14.48;100.00
63970;BME280;50156;37.772;-122.432;2022-09-09T11:05:51;99890.48;;;14.46;100.00
63970;BME280;50156;37.772;-122.432;2022-09-09T11:08:24;99895.25;;;14.43;100.00
63970;BME280;50156;37.772;-122.432;2022-09-09T11:10:57;99892.16;;;14.41;100.00
63970;BME280;50156;37.772;-122.432;2022-09-09T11:13:33;99891.70;;;14.39;100.00
63970;BME280;50156;37.772;-122.432;2022-09-09T11:16:11;99887.68;;;14.34;100.00
63970;BME280;50156;37.772;-122.432;2022-09-09T11:18:44;99886.66;;;14.39;100.00
63970;BME280;50156;37.772;-122.432;2022-09-09T11:21:19;99887.82;;;14.35;100.00
63970;BME280;50156;37.772;-122.432;2022-09-09T11:23:54;99884.82;;;14.39;100.00
63970;BME280;50156;37.772;-122.432;2022-09-09T11:26:31;99879.05;;;14.37;100.00
63970;BME280;50156;37.772;-122.432;2022-09-09T11:29:16;99873.47;;;14.39;100.00
63970;BME280;50156;37.772;-122.432;2022-09-09T11:32:00;99870.44;;;14.34;100.00
63970;BME280;50156;37.772;-122.432;2022-09-09T11:34:43;99872.21;;;14.26;100.00
63970;BME280;50156;37.772;-122.432;2022-09-09T11:37:39;99872.85;;;14.21;100.00
63970;BME280;50156;37.772;-122.432;2022-09-09T11:40:19;99871.86;;;14.18;100.00
63970;BME280;50156;37.772;-122.432;2022-09-09T11:42:48;99866.53;;;14.16;100.00
63970;BME280;50156;37.772;-122.432;2022-09-09T11:45:23;99862.98;;;14.17;100.00
63970;BME280;50156;37.772;-122.432;2022-09-09T11:47:54;99862.21;;;14.18;100.00
63970;BME280;50156;37.772;-122.432;2022-09-09T11:50:39;99855.30;;;14.16;100.00
63970;BME280;50156;37.772;-122.432;2022-09-09T11:53:23;99852.12;;;14.19;100.00
63970;BME280;50156;37.772;-122.432;2022-09-09T11:56:10;99853.55;;;14.18;100.00
63970;BME280;50156;37.772;-122.432;2022-09-09T11:58:43;99845.46;;;14.16;100.00
63970;BME280;50156;37.772;-122.432;2022-09-09T12:01:25;99845.69;;;14.15;100.00
63970;BME280;50156;37.772;-122.432;2022-09-09T12:04:35;99842.55;;;14.18;100.00
63970;BME280;50156;37.772;-122.432;2022-09-09T12:07:24;99835.41;;;14.10;100.00
63970;BME280;50156;37.772;-122.432;2022-09-09T12:09:57;99835.92;;;14.12;100.00
63970;BME280;50156;37.772;-122.432;2022-09-09T12:12:30;99840.42;;;14.12;100.00
63970;BME280;50156;37.772;-122.432;2022-09-09T12:15:03;99840.45;;;14.15;100.00
63970;BME280;50156;37.772;-122.432;2022-09-09T12:17:46;99839.00;;;14.10;100.00
63970;BME280;50156;37.772;-122.432;2022-09-09T12:20:17;99843.52;;;14.12;100.00
63970;BME280;50156;37.772;-122.432;2022-09-09T12:23:31;99843.31;;;14.09;100.00
63970;BME280;50156;37.772;-122.432;2022-09-09T12:26:15;99848.73;;;14.03;100.00
63970;BME280;50156;37.772;-122.432;2022-09-09T12:28:55;99849.15;;;14.01;100.00
63970;BME280;50156;37.772;-122.432;2022-09-09T12:31:32;99845.37;;;14.04;100.00
63970;BME280;50156;37.772;-122.432;2022-09-09T12:34:11;99843.54;;;14.11;100.00
63970;BME280;50156;37.772;-122.432;2022-09-09T12:36:40;99841.72;;;14.11;100.00
63970;BME280;50156;37.772;-122.432;2022-09-09T12:39:17;99842.16;;;14.14;100.00
63970;BME280;50156;37.772;-122.432;2022-09-09T12:41:53;99839.64;;;14.11;100.00
63970;BME280;50156;37.772;-122.432;2022-09-09T12:44:22;99836.95;;;14.04;100.00
63970;BME280;50156;37.772;-122.432;2022-09-09T12:46:52;99833.84;;;14.06;100.00
63970;BME280;50156;37.772;-122.432;2022-09-09T12:49:29;99833.54;;;14.05;100.00
63970;BME280;50156;37.772;-122.432;2022-09-09T12:51:58;99832.59;;;14.04;100.00